PWSweather.com
Personal Weather Stations
Station Observations
SEVANL01
SevillaES 41004

SevillaES 41004

Lat: 37.383633, Lon: -5.985787

Elevation: 19.685

Station Type: Davis Vantage Pro2

Latest ConditionsUpdated 7:40:00 AM GMT+01:01 Sunday, Jul 23, 2017
Currently Today's Max Today's Min Today's Average
Temperature 70.1°F21.2°C 73.9°F23.3°C 67.7°F19.8°C 69.7°F20.9°C
Dew Point 61.4°F16.3°C 63.1°F17.3°C 58.2°F14.6°C 61.3°F16.3°C
Winds 0.7 mph NNW1.1 kmh NNW 3.5 mph SSW5.6 kmh SSW - 2.1 mph 3.4 kmh
Wind Gusts 3.0 mph4.8 kmh 8.0 mph12.9 kmh - -
Humidity 74% 82% 58% 75%
Pressure 30.01 in1016.3 mb 30.01 in1016.3 mb 29.96 in1014.6 mb -
Hour Temp Dew Point Humidity Winds Wind Gusts Pressure Precip Precip Rate Daily Precip Total
07:40 AM 70.1°F21.2°C 61.4°F16.3°C 74% 0.7 mph NNW1.1 kmh NNW 3.0 mph4.8 kmh 30.01 in1016.3 mb 0.00 in0.0 mm 0.00 in0.0 mm 0.00 in0.0 mm
07:20 AM 69.0°F20.6°C 62.6°F17.0°C 80% 1.0 mph SW1.6 kmh SW 2.0 mph3.2 kmh 30.01 in1016.3 mb 0.00 in0.0 mm 0.00 in0.0 mm 0.00 in0.0 mm
07:00 AM 68.8°F20.4°C 62.4°F16.9°C 80% 0.5 mph SW0.8 kmh SW 2.0 mph3.2 kmh 30.00 in1015.9 mb 0.00 in0.0 mm 0.00 in0.0 mm 0.00 in0.0 mm
06:40 AM 67.8°F19.9°C 61.8°F16.6°C 81% 1.0 mph SW1.6 kmh SW 4.0 mph6.4 kmh 30.00 in1015.9 mb 0.00 in0.0 mm 0.00 in0.0 mm 0.00 in0.0 mm
06:20 AM 67.7°F19.8°C 62.0°F16.7°C 82% 1.3 mph SW2.1 kmh SW 3.0 mph4.8 kmh 30.00 in1015.9 mb 0.00 in0.0 mm 0.00 in0.0 mm 0.00 in0.0 mm
06:00 AM 67.8°F19.9°C 61.8°F16.6°C 81% 1.0 mph SW1.6 kmh SW 4.0 mph6.4 kmh 29.99 in1015.6 mb 0.00 in0.0 mm 0.00 in0.0 mm 0.00 in0.0 mm
05:40 AM 67.7°F19.8°C 61.3°F16.3°C 80% 2.0 mph SSW3.2 kmh SSW 4.0 mph6.4 kmh 29.98 in1015.2 mb 0.00 in0.0 mm 0.00 in0.0 mm 0.00 in0.0 mm
05:20 AM 68.0°F20.0°C 61.6°F16.4°C 80% 2.2 mph SW3.5 kmh SW 4.0 mph6.4 kmh 29.98 in1015.2 mb 0.00 in0.0 mm 0.00 in0.0 mm 0.00 in0.0 mm
05:00 AM 68.4°F20.2°C 61.3°F16.3°C 78% 1.5 mph SW2.4 kmh SW 4.0 mph6.4 kmh 29.98 in1015.2 mb 0.00 in0.0 mm 0.00 in0.0 mm 0.00 in0.0 mm
04:40 AM 68.7°F20.4°C 61.2°F16.2°C 77% 2.6 mph SSW4.2 kmh SSW 5.0 mph8.0 kmh 29.98 in1015.2 mb 0.00 in0.0 mm 0.00 in0.0 mm 0.00 in0.0 mm
04:20 AM 69.0°F20.6°C 61.1°F16.2°C 76% 2.1 mph SSW3.4 kmh SSW 6.0 mph9.7 kmh 29.97 in1014.9 mb 0.00 in0.0 mm 0.00 in0.0 mm 0.00 in0.0 mm
04:00 AM 68.9°F20.5°C 61.0°F16.1°C 76% 2.0 mph SSW3.2 kmh SSW 5.0 mph8.0 kmh 29.97 in1014.9 mb 0.00 in0.0 mm 0.00 in0.0 mm 0.00 in0.0 mm
03:40 AM 69.2°F20.7°C 60.6°F15.9°C 74% 2.1 mph SSW3.4 kmh SSW 5.0 mph8.0 kmh 29.97 in1014.9 mb 0.00 in0.0 mm 0.00 in0.0 mm 0.00 in0.0 mm
03:20 AM 70.1°F21.2°C 61.0°F16.1°C 73% 1.9 mph SW3.1 kmh SW 6.0 mph9.7 kmh 29.97 in1014.9 mb 0.00 in0.0 mm 0.00 in0.0 mm 0.00 in0.0 mm
03:00 AM 70.4°F21.3°C 61.3°F16.3°C 73% 2.2 mph S3.5 kmh S 6.0 mph9.7 kmh 29.96 in1014.6 mb 0.00 in0.0 mm 0.00 in0.0 mm 0.00 in0.0 mm
02:40 AM 70.4°F21.3°C 61.3°F16.3°C 73% 3.0 mph S4.8 kmh S 7.0 mph11.3 kmh 29.97 in1014.9 mb 0.00 in0.0 mm 0.00 in0.0 mm 0.00 in0.0 mm
02:20 AM 70.4°F21.3°C 61.7°F16.5°C 74% 2.1 mph S3.4 kmh S 6.0 mph9.7 kmh 29.97 in1014.9 mb 0.00 in0.0 mm 0.00 in0.0 mm 0.00 in0.0 mm
02:00 AM 70.2°F21.2°C 62.3°F16.8°C 76% 3.1 mph SSW5.0 kmh SSW 6.0 mph9.7 kmh 29.97 in1014.9 mb 0.00 in0.0 mm 0.00 in0.0 mm 0.00 in0.0 mm
01:40 AM 70.7°F21.5°C 63.1°F17.3°C 77% 2.5 mph SSW4.0 kmh SSW 7.0 mph11.3 kmh 29.97 in1014.9 mb 0.00 in0.0 mm 0.00 in0.0 mm 0.00 in0.0 mm
01:20 AM 70.5°F21.4°C 62.2°F16.8°C 75% 3.1 mph SW5.0 kmh SW 7.0 mph11.3 kmh 29.97 in1014.9 mb 0.00 in0.0 mm 0.00 in0.0 mm 0.00 in0.0 mm
01:00 AM 71.0°F21.7°C 61.1°F16.2°C 71% 2.2 mph SW3.5 kmh SW 6.0 mph9.7 kmh 29.97 in1014.9 mb 0.00 in0.0 mm 0.00 in0.0 mm 0.00 in0.0 mm
12:40 AM 71.7°F22.1°C 60.6°F15.9°C 68% 3.5 mph SSW5.6 kmh SSW 8.0 mph12.9 kmh 29.97 in1014.9 mb 0.00 in0.0 mm 0.00 in0.0 mm 0.00 in0.0 mm
12:20 AM 72.7°F22.6°C 59.4°F15.2°C 63% 3.1 mph S5.0 kmh S 7.0 mph11.3 kmh 29.97 in1014.9 mb 0.00 in0.0 mm 0.00 in0.0 mm 0.00 in0.0 mm
12:00 AM 73.9°F23.3°C 58.2°F14.6°C 58% 3.0 mph S4.8 kmh S 7.0 mph11.3 kmh 29.97 in1014.9 mb 0.00 in0.0 mm 0.00 in0.0 mm 0.00 in0.0 mm